sensor_id;sensor_type;location;lat;lon;timestamp;temperature;humidity
50955;DHT22;36966;48.064;-0.792;2022-12-18T00:02:02;13.00;34.10
50955;DHT22;36966;48.064;-0.792;2022-12-18T00:04:24;13.00;34.10
50955;DHT22;36966;48.064;-0.792;2022-12-18T00:06:44;13.00;34.10
50955;DHT22;36966;48.064;-0.792;2022-12-18T00:09:03;13.00;34.10
50955;DHT22;36966;48.064;-0.792;2022-12-18T00:11:25;13.00;34.10
50955;DHT22;36966;48.064;-0.792;2022-12-18T00:13:45;13.00;34.10
50955;DHT22;36966;48.064;-0.792;2022-12-18T00:16:26;13.00;34.10
50955;DHT22;36966;48.064;-0.792;2022-12-18T00:18:45;13.00;34.10
50955;DHT22;36966;48.064;-0.792;2022-12-18T00:21:07;13.00;34.10
50955;DHT22;36966;48.064;-0.792;2022-12-18T00:23:28;13.00;34.10
50955;DHT22;36966;48.064;-0.792;2022-12-18T00:25:48;13.00;34.10
50955;DHT22;36966;48.064;-0.792;2022-12-18T00:28:07;13.00;34.10
50955;DHT22;36966;48.064;-0.792;2022-12-18T00:30:27;13.00;34.10
50955;DHT22;36966;48.064;-0.792;2022-12-18T00:32:46;12.90;34.10
50955;DHT22;36966;48.064;-0.792;2022-12-18T00:35:06;13.00;34.10
50955;DHT22;36966;48.064;-0.792;2022-12-18T00:37:25;13.00;34.10
50955;DHT22;36966;48.064;-0.792;2022-12-18T00:39:44;12.90;34.10
50955;DHT22;36966;48.064;-0.792;2022-12-18T00:42:03;13.00;34.10
50955;DHT22;36966;48.064;-0.792;2022-12-18T00:44:41;13.00;34.10
50955;DHT22;36966;48.064;-0.792;2022-12-18T00:47:01;13.00;34.20
50955;DHT22;36966;48.064;-0.792;2022-12-18T00:49:20;12.90;34.20
50955;DHT22;36966;48.064;-0.792;2022-12-18T00:51:40;13.00;34.20
50955;DHT22;36966;48.064;-0.792;2022-12-18T00:53:59;13.00;34.20
50955;DHT22;36966;48.064;-0.792;2022-12-18T00:56:18;12.90;34.10
50955;DHT22;36966;48.064;-0.792;2022-12-18T00:58:38;12.90;34.10
50955;DHT22;36966;48.064;-0.792;2022-12-18T01:00:57;12.90;34.10
50955;DHT22;36966;48.064;-0.792;2022-12-18T01:03:16;12.90;34.10
50955;DHT22;36966;48.064;-0.792;2022-12-18T01:05:40;12.90;34.10
50955;DHT22;36966;48.064;-0.792;2022-12-18T01:07:59;12.90;34.10
50955;DHT22;36966;48.064;-0.792;2022-12-18T01:10:19;12.90;34.10
50955;DHT22;36966;48.064;-0.792;2022-12-18T01:12:39;12.90;34.10
50955;DHT22;36966;48.064;-0.792;2022-12-18T01:14:58;12.90;34.10
50955;DHT22;36966;48.064;-0.792;2022-12-18T01:17:17;12.90;34.10
50955;DHT22;36966;48.064;-0.792;2022-12-18T01:19:37;12.90;34.00
50955;DHT22;36966;48.064;-0.792;2022-12-18T01:21:56;12.90;34.10
50955;DHT22;36966;48.064;-0.792;2022-12-18T01:24:16;12.90;34.10
50955;DHT22;36966;48.064;-0.792;2022-12-18T01:26:34;12.90;34.10
50955;DHT22;36966;48.064;-0.792;2022-12-18T01:28:54;12.90;34.10
50955;DHT22;36966;48.064;-0.792;2022-12-18T01:31:25;12.90;34.10
50955;DHT22;36966;48.064;-0.792;2022-12-18T01:33:45;12.90;34.10
50955;DHT22;36966;48.064;-0.792;2022-12-18T01:36:13;12.90;34.10
50955;DHT22;36966;48.064;-0.792;2022-12-18T01:38:33;12.90;34.10
50955;DHT22;36966;48.064;-0.792;2022-12-18T01:40:57;12.90;34.00
50955;DHT22;36966;48.064;-0.792;2022-12-18T01:43:17;12.90;34.10
50955;DHT22;36966;48.064;-0.792;2022-12-18T01:45:36;12.90;34.00
50955;DHT22;36966;48.064;-0.792;2022-12-18T01:47:59;12.80;34.00
50955;DHT22;36966;48.064;-0.792;2022-12-18T01:50:24;12.80;34.00
50955;DHT22;36966;48.064;-0.792;2022-12-18T01:52:47;12.80;34.00
50955;DHT22;36966;48.064;-0.792;2022-12-18T01:55:08;12.80;34.00
50955;DHT22;36966;48.064;-0.792;2022-12-18T01:57:29;12.80;34.00
50955;DHT22;36966;48.064;-0.792;2022-12-18T01:59:52;12.80;34.00
50955;DHT22;36966;48.064;-0.792;2022-12-18T02:02:11;12.80;34.00
50955;DHT22;36966;48.064;-0.792;2022-12-18T02:04:31;12.80;34.00
50955;DHT22;36966;48.064;-0.792;2022-12-18T02:07:31;12.80;34.00
50955;DHT22;36966;48.064;-0.792;2022-12-18T02:15:00;12.80;34.00
50955;DHT22;36966;48.064;-0.792;2022-12-18T02:17:26;12.80;34.00
50955;DHT22;36966;48.064;-0.792;2022-12-18T02:20:04;12.80;34.00
50955;DHT22;36966;48.064;-0.792;2022-12-18T02:27:46;12.80;34.00
50955;DHT22;36966;48.064;-0.792;2022-12-18T02:30:06;12.70;33.90
50955;DHT22;36966;48.064;-0.792;2022-12-18T02:32:30;12.80;33.90
50955;DHT22;36966;48.064;-0.792;2022-12-18T02:34:52;12.80;33.90
50955;DHT22;36966;48.064;-0.792;2022-12-18T02:37:15;12.80;33.90
50955;DHT22;36966;48.064;-0.792;2022-12-18T02:39:39;12.70;34.00
50955;DHT22;36966;48.064;-0.792;2022-12-18T02:42:00;12.80;34.00
50955;DHT22;36966;48.064;-0.792;2022-12-18T02:44:26;12.80;34.00
50955;DHT22;36966;48.064;-0.792;2022-12-18T02:46:50;12.80;34.00
50955;DHT22;36966;48.064;-0.792;2022-12-18T02:54:57;12.80;33.90
50955;DHT22;36966;48.064;-0.792;2022-12-18T03:00:16;12.80;33.90
50955;DHT22;36966;48.064;-0.792;2022-12-18T03:05:16;12.80;33.90
50955;DHT22;36966;48.064;-0.792;2022-12-18T03:07:44;12.80;33.90
50955;DHT22;36966;48.064;-0.792;2022-12-18T03:10:07;12.70;34.00
50955;DHT22;36966;48.064;-0.792;2022-12-18T03:12:32;12.70;33.90
50955;DHT22;36966;48.064;-0.792;2022-12-18T03:17:23;12.70;33.90
50955;DHT22;36966;48.064;-0.792;2022-12-18T03:19:45;12.70;34.00
50955;DHT22;36966;48.064;-0.792;2022-12-18T03:22:06;12.70;33.90
50955;DHT22;36966;48.064;-0.792;2022-12-18T03:24:28;12.70;34.00
50955;DHT22;36966;48.064;-0.792;2022-12-18T03:26:52;12.70;33.90
50955;DHT22;36966;48.064;-0.792;2022-12-18T03:29:21;12.70;34.00
50955;DHT22;36966;48.064;-0.792;2022-12-18T03:31:45;12.70;34.00
50955;DHT22;36966;48.064;-0.792;2022-12-18T03:34:14;12.70;34.00
50955;DHT22;36966;48.064;-0.792;2022-12-18T03:36:35;12.70;33.90
50955;DHT22;36966;48.064;-0.792;2022-12-18T03:38:57;12.70;33.90
50955;DHT22;36966;48.064;-0.792;2022-12-18T03:46:26;12.70;33.90
50955;DHT22;36966;48.064;-0.792;2022-12-18T03:48:52;12.70;33.90
50955;DHT22;36966;48.064;-0.792;2022-12-18T03:51:20;12.70;33.90
50955;DHT22;36966;48.064;-0.792;2022-12-18T03:53:47;12.70;33.90
50955;DHT22;36966;48.064;-0.792;2022-12-18T03:56:09;12.70;33.90
50955;DHT22;36966;48.064;-0.792;2022-12-18T03:58:29;12.70;33.90
50955;DHT22;36966;48.064;-0.792;2022-12-18T04:00:52;12.70;34.00
50955;DHT22;36966;48.064;-0.792;2022-12-18T04:03:14;12.70;34.00
50955;DHT22;36966;48.064;-0.792;2022-12-18T04:05:36;12.70;34.00
50955;DHT22;36966;48.064;-0.792;2022-12-18T04:07:56;12.70;34.00
50955;DHT22;36966;48.064;-0.792;2022-12-18T04:10:17;12.70;34.00
50955;DHT22;36966;48.064;-0.792;2022-12-18T04:12:37;12.70;34.00
50955;DHT22;36966;48.064;-0.792;2022-12-18T04:14:57;12.70;34.00
50955;DHT22;36966;48.064;-0.792;2022-12-18T04:17:16;12.70;33.90
50955;DHT22;36966;48.064;-0.792;2022-12-18T04:19:35;12.70;33.90
50955;DHT22;36966;48.064;-0.792;2022-12-18T04:21:54;12.70;33.90
50955;DHT22;36966;48.064;-0.792;2022-12-18T04:24:13;12.70;33.90
50955;DHT22;36966;48.064;-0.792;2022-12-18T04:26:32;12.70;33.90
50955;DHT22;36966;48.064;-0.792;2022-12-18T04:28:51;12.70;34.00
50955;DHT22;36966;48.064;-0.792;2022-12-18T04:31:10;12.70;34.00
50955;DHT22;36966;48.064;-0.792;2022-12-18T04:33:30;12.70;34.00
50955;DHT22;36966;48.064;-0.792;2022-12-18T04:35:49;12.70;34.00
50955;DHT22;36966;48.064;-0.792;2022-12-18T04:38:09;12.70;34.00
50955;DHT22;36966;48.064;-0.792;2022-12-18T04:40:28;12.70;34.00
50955;DHT22;36966;48.064;-0.792;2022-12-18T04:42:47;12.70;34.00
50955;DHT22;36966;48.064;-0.792;2022-12-18T04:45:07;12.70;34.00
50955;DHT22;36966;48.064;-0.792;2022-12-18T04:47:27;12.70;34.00
50955;DHT22;36966;48.064;-0.792;2022-12-18T04:49:46;12.70;34.00
50955;DHT22;36966;48.064;-0.792;2022-12-18T04:52:07;12.70;34.00
50955;DHT22;36966;48.064;-0.792;2022-12-18T04:54:26;12.70;34.00
50955;DHT22;36966;48.064;-0.792;2022-12-18T04:56:45;12.70;34.00
50955;DHT22;36966;48.064;-0.792;2022-12-18T04:59:04;12.70;33.90
50955;DHT22;36966;48.064;-0.792;2022-12-18T05:01:24;12.70;34.00
50955;DHT22;36966;48.064;-0.792;2022-12-18T05:03:43;12.70;34.00
50955;DHT22;36966;48.064;-0.792;2022-12-18T05:06:03;12.60;34.00
50955;DHT22;36966;48.064;-0.792;2022-12-18T05:08:23;12.70;34.00
50955;DHT22;36966;48.064;-0.792;2022-12-18T05:10:43;12.70;34.00
50955;DHT22;36966;48.064;-0.792;2022-12-18T05:13:02;12.70;34.00
50955;DHT22;36966;48.064;-0.792;2022-12-18T05:15:21;12.70;34.00
50955;DHT22;36966;48.064;-0.792;2022-12-18T05:17:41;12.70;34.00
50955;DHT22;36966;48.064;-0.792;2022-12-18T05:20:00;12.70;33.90
50955;DHT22;36966;48.064;-0.792;2022-12-18T05:22:19;12.70;33.90
50955;DHT22;36966;48.064;-0.792;2022-12-18T05:24:38;12.70;33.90
50955;DHT22;36966;48.064;-0.792;2022-12-18T05:26:57;12.70;33.90
50955;DHT22;36966;48.064;-0.792;2022-12-18T05:29:16;12.70;33.90
50955;DHT22;36966;48.064;-0.792;2022-12-18T05:31:35;12.80;33.80
50955;DHT22;36966;48.064;-0.792;2022-12-18T05:33:55;12.70;33.80
50955;DHT22;36966;48.064;-0.792;2022-12-18T05:36:14;12.70;33.80
50955;DHT22;36966;48.064;-0.792;2022-12-18T05:38:37;12.80;33.80
50955;DHT22;36966;48.064;-0.792;2022-12-18T05:40:56;12.80;33.80
50955;DHT22;36966;48.064;-0.792;2022-12-18T05:43:17;12.80;33.80
50955;DHT22;36966;48.064;-0.792;2022-12-18T05:45:39;12.90;33.80
50955;DHT22;36966;48.064;-0.792;2022-12-18T05:47:58;12.90;33.70
50955;DHT22;36966;48.064;-0.792;2022-12-18T05:50:17;12.90;33.70
50955;DHT22;36966;48.064;-0.792;2022-12-18T05:52:37;12.90;33.70
50955;DHT22;36966;48.064;-0.792;2022-12-18T05:54:56;12.90;33.70
50955;DHT22;36966;48.064;-0.792;2022-12-18T05:57:15;12.90;33.70
50955;DHT22;36966;48.064;-0.792;2022-12-18T05:59:34;12.90;33.70
50955;DHT22;36966;48.064;-0.792;2022-12-18T06:01:53;12.90;33.70
50955;DHT22;36966;48.064;-0.792;2022-12-18T06:04:13;13.00;33.70
50955;DHT22;36966;48.064;-0.792;2022-12-18T06:06:32;13.00;33.70
50955;DHT22;36966;48.064;-0.792;2022-12-18T06:08:51;12.90;33.70
50955;DHT22;36966;48.064;-0.792;2022-12-18T06:11:11;13.00;33.70
50955;DHT22;36966;48.064;-0.792;2022-12-18T06:13:30;13.00;33.70
50955;DHT22;36966;48.064;-0.792;2022-12-18T06:15:49;13.00;33.70
50955;DHT22;36966;48.064;-0.792;2022-12-18T06:18:08;13.00;33.70
50955;DHT22;36966;48.064;-0.792;2022-12-18T06:20:28;13.00;33.70
50955;DHT22;36966;48.064;-0.792;2022-12-18T06:22:47;13.10;33.70
50955;DHT22;36966;48.064;-0.792;2022-12-18T06:25:07;13.10;33.70
50955;DHT22;36966;48.064;-0.792;2022-12-18T06:27:27;13.10;33.70
50955;DHT22;36966;48.064;-0.792;2022-12-18T06:29:46;13.10;33.70
50955;DHT22;36966;48.064;-0.792;2022-12-18T06:32:05;13.10;33.70
50955;DHT22;36966;48.064;-0.792;2022-12-18T06:34:24;13.10;33.70
50955;DHT22;36966;48.064;-0.792;2022-12-18T06:36:43;13.10;33.70
50955;DHT22;36966;48.064;-0.792;2022-12-18T06:39:02;13.10;33.70
50955;DHT22;36966;48.064;-0.792;2022-12-18T06:41:21;13.20;33.70
50955;DHT22;36966;48.064;-0.792;2022-12-18T06:43:41;13.10;33.70
50955;DHT22;36966;48.064;-0.792;2022-12-18T06:46:01;13.10;33.70
50955;DHT22;36966;48.064;-0.792;2022-12-18T06:48:20;13.10;33.70
50955;DHT22;36966;48.064;-0.792;2022-12-18T06:50:42;13.20;33.70
50955;DHT22;36966;48.064;-0.792;2022-12-18T06:53:02;13.20;33.70
50955;DHT22;36966;48.064;-0.792;2022-12-18T06:55:21;13.20;33.70
50955;DHT22;36966;48.064;-0.792;2022-12-18T06:57:40;13.20;33.80
50955;DHT22;36966;48.064;-0.792;2022-12-18T06:59:59;13.20;33.80
50955;DHT22;36966;48.064;-0.792;2022-12-18T07:02:18;13.20;33.80
50955;DHT22;36966;48.064;-0.792;2022-12-18T07:04:38;13.20;33.80
50955;DHT22;36966;48.064;-0.792;2022-12-18T07:06:57;13.20;33.80
50955;DHT22;36966;48.064;-0.792;2022-12-18T07:09:16;13.20;33.80
50955;DHT22;36966;48.064;-0.792;2022-12-18T07:11:35;13.20;33.80
50955;DHT22;36966;48.064;-0.792;2022-12-18T07:13:55;13.20;33.90
50955;DHT22;36966;48.064;-0.792;2022-12-18T07:16:16;13.10;33.90
50955;DHT22;36966;48.064;-0.792;2022-12-18T07:18:36;13.20;33.90
50955;DHT22;36966;48.064;-0.792;2022-12-18T07:20:55;13.10;33.90
50955;DHT22;36966;48.064;-0.792;2022-12-18T07:23:14;13.10;33.90
50955;DHT22;36966;48.064;-0.792;2022-12-18T07:25:37;13.10;33.90
50955;DHT22;36966;48.064;-0.792;2022-12-18T07:27:56;13.20;33.90
50955;DHT22;36966;48.064;-0.792;2022-12-18T07:30:15;13.10;33.90
50955;DHT22;36966;48.064;-0.792;2022-12-18T07:32:34;13.20;34.00
50955;DHT22;36966;48.064;-0.792;2022-12-18T07:34:53;13.10;33.90
50955;DHT22;36966;48.064;-0.792;2022-12-18T07:37:13;13.20;34.00
50955;DHT22;36966;48.064;-0.792;2022-12-18T07:39:32;13.20;34.00
50955;DHT22;36966;48.064;-0.792;2022-12-18T07:41:51;13.20;34.00
50955;DHT22;36966;48.064;-0.792;2022-12-18T07:44:30;13.20;34.00
50955;DHT22;36966;48.064;-0.792;2022-12-18T07:46:49;13.20;34.00
50955;DHT22;36966;48.064;-0.792;2022-12-18T07:49:08;13.20;34.00
50955;DHT22;36966;48.064;-0.792;2022-12-18T07:51:27;13.20;34.00
50955;DHT22;36966;48.064;-0.792;2022-12-18T07:53:46;13.20;34.00
50955;DHT22;36966;48.064;-0.792;2022-12-18T07:56:09;13.20;34.00
50955;DHT22;36966;48.064;-0.792;2022-12-18T07:58:29;13.10;34.00
50955;DHT22;36966;48.064;-0.792;2022-12-18T08:00:48;13.10;34.10
50955;DHT22;36966;48.064;-0.792;2022-12-18T08:03:07;13.10;34.10
50955;DHT22;36966;48.064;-0.792;2022-12-18T08:05:27;13.20;34.10
50955;DHT22;36966;48.064;-0.792;2022-12-18T08:07:47;13.20;34.20
50955;DHT22;36966;48.064;-0.792;2022-12-18T08:10:06;13.10;34.20
50955;DHT22;36966;48.064;-0.792;2022-12-18T08:12:25;13.20;34.20
50955;DHT22;36966;48.064;-0.792;2022-12-18T08:14:45;13.20;34.20
50955;DHT22;36966;48.064;-0.792;2022-12-18T08:17:04;13.10;34.20
50955;DHT22;36966;48.064;-0.792;2022-12-18T08:19:23;13.20;34.20
50955;DHT22;36966;48.064;-0.792;2022-12-18T08:21:43;13.20;34.20
50955;DHT22;36966;48.064;-0.792;2022-12-18T08:24:02;13.20;34.30
50955;DHT22;36966;48.064;-0.792;2022-12-18T08:26:23;13.20;34.30
50955;DHT22;36966;48.064;-0.792;2022-12-18T08:28:42;13.20;34.30
50955;DHT22;36966;48.064;-0.792;2022-12-18T08:31:01;13.20;34.30
50955;DHT22;36966;48.064;-0.792;2022-12-18T08:33:20;13.20;34.30
50955;DHT22;36966;48.064;-0.792;2022-12-18T08:35:39;13.20;34.40
50955;DHT22;36966;48.064;-0.792;2022-12-18T08:37:58;13.20;34.30
50955;DHT22;36966;48.064;-0.792;2022-12-18T08:40:18;13.20;34.40
50955;DHT22;36966;48.064;-0.792;2022-12-18T08:42:37;13.20;34.40
50955;DHT22;36966;48.064;-0.792;2022-12-18T08:45:16;13.10;34.40
50955;DHT22;36966;48.064;-0.792;2022-12-18T08:47:35;13.10;34.40
50955;DHT22;36966;48.064;-0.792;2022-12-18T08:49:54;13.10;34.40
50955;DHT22;36966;48.064;-0.792;2022-12-18T08:52:13;13.10;34.50
50955;DHT22;36966;48.064;-0.792;2022-12-18T08:54:33;13.10;34.50
50955;DHT22;36966;48.064;-0.792;2022-12-18T08:56:53;13.20;34.50
50955;DHT22;36966;48.064;-0.792;2022-12-18T08:59:12;13.20;34.50
50955;DHT22;36966;48.064;-0.792;2022-12-18T09:01:31;13.20;34.50
50955;DHT22;36966;48.064;-0.792;2022-12-18T09:03:51;13.20;34.60
50955;DHT22;36966;48.064;-0.792;2022-12-18T09:06:14;13.10;34.50
50955;DHT22;36966;48.064;-0.792;2022-12-18T09:08:34;13.20;34.50
50955;DHT22;36966;48.064;-0.792;2022-12-18T09:10:54;13.20;34.50
50955;DHT22;36966;48.064;-0.792;2022-12-18T09:13:14;13.20;34.60
50955;DHT22;36966;48.064;-0.792;2022-12-18T09:15:34;13.20;34.60
50955;DHT22;36966;48.064;-0.792;2022-12-18T09:17:53;13.20;34.60
50955;DHT22;36966;48.064;-0.792;2022-12-18T09:20:13;13.20;34.60
50955;DHT22;36966;48.064;-0.792;2022-12-18T09:22:32;13.20;34.60
50955;DHT22;36966;48.064;-0.792;2022-12-18T09:24:51;13.20;34.70
50955;DHT22;36966;48.064;-0.792;2022-12-18T09:27:10;13.20;34.70
50955;DHT22;36966;48.064;-0.792;2022-12-18T09:29:30;13.20;34.70
50955;DHT22;36966;48.064;-0.792;2022-12-18T09:31:50;13.20;34.70
50955;DHT22;36966;48.064;-0.792;2022-12-18T09:34:09;13.20;34.70
50955;DHT22;36966;48.064;-0.792;2022-12-18T09:36:29;13.20;34.70
50955;DHT22;36966;48.064;-0.792;2022-12-18T09:38:48;13.20;34.80
50955;DHT22;36966;48.064;-0.792;2022-12-18T09:44:26;13.20;34.80
50955;DHT22;36966;48.064;-0.792;2022-12-18T09:49:29;13.30;34.90
50955;DHT22;36966;48.064;-0.792;2022-12-18T09:54:30;13.20;34.90
50955;DHT22;36966;48.064;-0.792;2022-12-18T09:56:51;13.30;34.90
50955;DHT22;36966;48.064;-0.792;2022-12-18T09:59:31;13.20;34.90
50955;DHT22;36966;48.064;-0.792;2022-12-18T10:01:52;13.20;35.00
50955;DHT22;36966;48.064;-0.792;2022-12-18T10:04:11;13.30;35.00
50955;DHT22;36966;48.064;-0.792;2022-12-18T10:08:59;13.20;35.10
50955;DHT22;36966;48.064;-0.792;2022-12-18T10:11:54;13.20;35.10
50955;DHT22;36966;48.064;-0.792;2022-12-18T10:17:18;13.20;35.20
50955;DHT22;36966;48.064;-0.792;2022-12-18T10:25:34;13.20;35.20
50955;DHT22;36966;48.064;-0.792;2022-12-18T10:27:28;13.30;35.30
50955;DHT22;36966;48.064;-0.792;2022-12-18T10:29:48;13.30;35.30
50955;DHT22;36966;48.064;-0.792;2022-12-18T10:32:15;13.20;35.30
50955;DHT22;36966;48.064;-0.792;2022-12-18T10:34:34;13.30;35.30
50955;DHT22;36966;48.064;-0.792;2022-12-18T10:36:54;13.20;35.40
50955;DHT22;36966;48.064;-0.792;2022-12-18T10:39:24;13.20;35.40
50955;DHT22;36966;48.064;-0.792;2022-12-18T10:41:46;13.30;35.40
50955;DHT22;36966;48.064;-0.792;2022-12-18T10:44:23;13.20;35.40
50955;DHT22;36966;48.064;-0.792;2022-12-18T10:46:45;13.30;35.40
50955;DHT22;36966;48.064;-0.792;2022-12-18T10:49:04;13.20;35.50
50955;DHT22;36966;48.064;-0.792;2022-12-18T10:51:29;13.20;35.50
50955;DHT22;36966;48.064;-0.792;2022-12-18T10:56:36;13.30;35.50
50955;DHT22;36966;48.064;-0.792;2022-12-18T10:58:58;13.30;35.50
50955;DHT22;36966;48.064;-0.792;2022-12-18T11:01:18;13.30;35.60
50955;DHT22;36966;48.064;-0.792;2022-12-18T11:03:58;13.30;35.60
50955;DHT22;36966;48.064;-0.792;2022-12-18T11:06:20;13.30;35.60
50955;DHT22;36966;48.064;-0.792;2022-12-18T11:08:43;13.30;35.60
50955;DHT22;36966;48.064;-0.792;2022-12-18T11:11:07;13.30;35.60
50955;DHT22;36966;48.064;-0.792;2022-12-18T11:13:35;13.30;35.70
50955;DHT22;36966;48.064;-0.792;2022-12-18T11:15:55;13.30;35.70
50955;DHT22;36966;48.064;-0.792;2022-12-18T11:20:38;13.20;35.80
50955;DHT22;36966;48.064;-0.792;2022-12-18T11:23:11;13.30;35.80
50955;DHT22;36966;48.064;-0.792;2022-12-18T11:25:33;13.30;35.80
50955;DHT22;36966;48.064;-0.792;2022-12-18T11:28:01;13.30;35.90
50955;DHT22;36966;48.064;-0.792;2022-12-18T11:30:30;13.30;35.90
50955;DHT22;36966;48.064;-0.792;2022-12-18T11:33:09;13.30;35.90
50955;DHT22;36966;48.064;-0.792;2022-12-18T11:35:50;13.30;36.00
50955;DHT22;36966;48.064;-0.792;2022-12-18T11:38:38;13.30;36.00
50955;DHT22;36966;48.064;-0.792;2022-12-18T11:43:33;13.30;36.00
50955;DHT22;36966;48.064;-0.792;2022-12-18T11:46:30;13.30;36.00
50955;DHT22;36966;48.064;-0.792;2022-12-18T11:51:29;13.30;36.10
50955;DHT22;36966;48.064;-0.792;2022-12-18T11:53:49;13.30;36.20
50955;DHT22;36966;48.064;-0.792;2022-12-18T11:56:36;13.30;36.20
50955;DHT22;36966;48.064;-0.792;2022-12-18T12:01:57;13.30;36.30
50955;DHT22;36966;48.064;-0.792;2022-12-18T12:10:15;13.30;36.30
50955;DHT22;36966;48.064;-0.792;2022-12-18T12:15:38;13.30;36.50
50955;DHT22;36966;48.064;-0.792;2022-12-18T12:18:11;13.30;36.50
50955;DHT22;36966;48.064;-0.792;2022-12-18T12:23:19;13.30;36.50
50955;DHT22;36966;48.064;-0.792;2022-12-18T12:25:49;13.30;36.60
50955;DHT22;36966;48.064;-0.792;2022-12-18T12:36:40;13.30;36.60
50955;DHT22;36966;48.064;-0.792;2022-12-18T12:39:06;13.30;36.60
50955;DHT22;36966;48.064;-0.792;2022-12-18T12:41:31;13.30;36.60
50955;DHT22;36966;48.064;-0.792;2022-12-18T12:44:16;13.30;36.60
50955;DHT22;36966;48.064;-0.792;2022-12-18T12:46:39;13.30;36.70
50955;DHT22;36966;48.064;-0.792;2022-12-18T12:49:02;13.30;36.70
50955;DHT22;36966;48.064;-0.792;2022-12-18T12:51:28;13.30;36.70
50955;DHT22;36966;48.064;-0.792;2022-12-18T12:53:49;13.30;36.80
50955;DHT22;36966;48.064;-0.792;2022-12-18T12:56:11;13.30;36.80
50955;DHT22;36966;48.064;-0.792;2022-12-18T13:04:11;13.40;37.10
50955;DHT22;36966;48.064;-0.792;2022-12-18T13:09:02;13.40;37.20
50955;DHT22;36966;48.064;-0.792;2022-12-18T13:11:41;13.40;37.10
50955;DHT22;36966;48.064;-0.792;2022-12-18T13:14:35;13.40;37.20
50955;DHT22;36966;48.064;-0.792;2022-12-18T13:19:33;13.40;37.30
50955;DHT22;36966;48.064;-0.792;2022-12-18T13:21:54;13.40;37.30
50955;DHT22;36966;48.064;-0.792;2022-12-18T13:24:21;13.40;37.50
50955;DHT22;36966;48.064;-0.792;2022-12-18T13:26:42;13.70;41.70
50955;DHT22;36966;48.064;-0.792;2022-12-18T13:29:02;13.80;40.80
50955;DHT22;36966;48.064;-0.792;2022-12-18T13:36:33;13.60;38.80
50955;DHT22;36966;48.064;-0.792;2022-12-18T13:41:37;13.50;38.50
50955;DHT22;36966;48.064;-0.792;2022-12-18T13:43:59;13.50;38.40
50955;DHT22;36966;48.064;-0.792;2022-12-18T13:46:46;13.40;38.40
50955;DHT22;36966;48.064;-0.792;2022-12-18T13:51:47;13.40;38.40
50955;DHT22;36966;48.064;-0.792;2022-12-18T13:56:49;13.50;38.30
50955;DHT22;36966;48.064;-0.792;2022-12-18T14:01:30;13.40;38.10
50955;DHT22;36966;48.064;-0.792;2022-12-18T14:03:49;13.40;38.10
50955;DHT22;36966;48.064;-0.792;2022-12-18T14:06:11;13.40;38.00
50955;DHT22;36966;48.064;-0.792;2022-12-18T14:08:43;13.50;38.00
50955;DHT22;36966;48.064;-0.792;2022-12-18T14:11:04;13.40;38.10
50955;DHT22;36966;48.064;-0.792;2022-12-18T14:13:29;13.40;38.00
50955;DHT22;36966;48.064;-0.792;2022-12-18T14:15:49;13.50;38.00
50955;DHT22;36966;48.064;-0.792;2022-12-18T14:20:44;13.40;38.10
50955;DHT22;36966;48.064;-0.792;2022-12-18T14:23:04;13.50;38.10
50955;DHT22;36966;48.064;-0.792;2022-12-18T14:25:26;13.50;38.20
50955;DHT22;36966;48.064;-0.792;2022-12-18T14:28:13;13.50;38.20
50955;DHT22;36966;48.064;-0.792;2022-12-18T14:30:34;13.40;38.30
50955;DHT22;36966;48.064;-0.792;2022-12-18T14:35:28;13.40;38.30
50955;DHT22;36966;48.064;-0.792;2022-12-18T14:37:48;13.50;38.70
50955;DHT22;36966;48.064;-0.792;2022-12-18T14:40:12;13.50;38.70
50955;DHT22;36966;48.064;-0.792;2022-12-18T14:42:32;13.50;38.80
50955;DHT22;36966;48.064;-0.792;2022-12-18T14:44:52;13.50;38.80
50955;DHT22;36966;48.064;-0.792;2022-12-18T14:47:31;13.50;38.80
50955;DHT22;36966;48.064;-0.792;2022-12-18T14:49:50;13.50;38.60
50955;DHT22;36966;48.064;-0.792;2022-12-18T14:52:24;13.50;38.60
50955;DHT22;36966;48.064;-0.792;2022-12-18T14:54:46;13.50;38.60
50955;DHT22;36966;48.064;-0.792;2022-12-18T14:57:24;13.50;38.60
50955;DHT22;36966;48.064;-0.792;2022-12-18T14:59:44;13.50;38.60
50955;DHT22;36966;48.064;-0.792;2022-12-18T15:04:39;13.50;38.60
50955;DHT22;36966;48.064;-0.792;2022-12-18T15:09:35;13.50;38.70
50955;DHT22;36966;48.064;-0.792;2022-12-18T15:11:57;13.50;38.70
50955;DHT22;36966;48.064;-0.792;2022-12-18T15:14:38;13.50;38.80
50955;DHT22;36966;48.064;-0.792;2022-12-18T15:17:00;13.50;38.90
50955;DHT22;36966;48.064;-0.792;2022-12-18T15:19:22;13.50;38.90
50955;DHT22;36966;48.064;-0.792;2022-12-18T15:21:44;13.50;38.90
50955;DHT22;36966;48.064;-0.792;2022-12-18T15:24:03;13.50;38.90
50955;DHT22;36966;48.064;-0.792;2022-12-18T15:26:23;13.50;39.00
50955;DHT22;36966;48.064;-0.792;2022-12-18T15:28:56;13.50;39.00
50955;DHT22;36966;48.064;-0.792;2022-12-18T15:33:41;13.50;39.10
50955;DHT22;36966;48.064;-0.792;2022-12-18T15:36:03;13.60;39.10
50955;DHT22;36966;48.064;-0.792;2022-12-18T15:38:23;13.50;39.20
50955;DHT22;36966;48.064;-0.792;2022-12-18T15:40:42;13.50;39.20
50955;DHT22;36966;48.064;-0.792;2022-12-18T15:43:04;13.60;39.20
50955;DHT22;36966;48.064;-0.792;2022-12-18T15:45:42;13.60;39.20
50955;DHT22;36966;48.064;-0.792;2022-12-18T15:48:01;13.60;39.20
50955;DHT22;36966;48.064;-0.792;2022-12-18T15:50:21;13.60;39.30
50955;DHT22;36966;48.064;-0.792;2022-12-18T15:52:43;13.60;39.30
50955;DHT22;36966;48.064;-0.792;2022-12-18T15:55:04;13.60;39.30
50955;DHT22;36966;48.064;-0.792;2022-12-18T15:57:43;13.50;39.40
50955;DHT22;36966;48.064;-0.792;2022-12-18T16:00:03;13.60;39.40
50955;DHT22;36966;48.064;-0.792;2022-12-18T16:02:22;13.60;39.40
50955;DHT22;36966;48.064;-0.792;2022-12-18T16:04:42;13.60;39.50
50955;DHT22;36966;48.064;-0.792;2022-12-18T16:07:01;13.60;39.50
50955;DHT22;36966;48.064;-0.792;2022-12-18T16:09:20;13.60;39.60
50955;DHT22;36966;48.064;-0.792;2022-12-18T16:11:42;13.60;39.50
50955;DHT22;36966;48.064;-0.792;2022-12-18T16:14:02;13.60;39.70
50955;DHT22;36966;48.064;-0.792;2022-12-18T16:16:21;13.60;39.60
50955;DHT22;36966;48.064;-0.792;2022-12-18T16:18:40;13.60;39.60
50955;DHT22;36966;48.064;-0.792;2022-12-18T16:20:59;13.60;39.50
50955;DHT22;36966;48.064;-0.792;2022-12-18T16:23:18;13.60;39.50
50955;DHT22;36966;48.064;-0.792;2022-12-18T16:25:38;13.60;39.60
50955;DHT22;36966;48.064;-0.792;2022-12-18T16:27:58;13.60;39.60
50955;DHT22;36966;48.064;-0.792;2022-12-18T16:30:20;13.60;39.60
50955;DHT22;36966;48.064;-0.792;2022-12-18T16:32:39;13.60;39.70
50955;DHT22;36966;48.064;-0.792;2022-12-18T16:34:59;13.60;39.70
50955;DHT22;36966;48.064;-0.792;2022-12-18T16:37:18;13.60;39.80
50955;DHT22;36966;48.064;-0.792;2022-12-18T16:39:38;13.60;39.80
50955;DHT22;36966;48.064;-0.792;2022-12-18T16:41:58;13.60;40.00
50955;DHT22;36966;48.064;-0.792;2022-12-18T16:44:19;13.60;39.80
50955;DHT22;36966;48.064;-0.792;2022-12-18T16:46:39;13.70;40.00